Time;durP1;ratioP1;P1;durP2;ratioP2;P2;SDS_P1;SDS_P2;PMS_P1;PMS_P2;Temp;Humidity;BMP_temperature;BMP_pressure;BME280_temperature;BME280_humidity;BME280_pressure;Samples;Min_cycle;Max_cycle;Signal;HPM_P1;HPM_P2
2022/10/01 00:00:59;;;;;;;6.80;3.20;;;;;;;;;;5029407;28;20064;-66
2022/10/01 00:03:25;;;;;;;6.95;3.90;;;;;;;;;;5040222;28;20033;-66
2022/10/01 00:06:08;;;;;;;6.45;3.63;;;;;;;;;;5045864;28;20044;-67
2022/10/01 00:08:34;;;;;;;4.95;3.33;;;;;;;;;;5027366;28;20067;-66
2022/10/01 00:11:00;;;;;;;5.40;3.20;;;;;;;;;;5027366;28;20104;-67
2022/10/01 00:13:27;;;;;;;5.82;3.30;;;;;;;;;;5049635;28;20021;-66
2022/10/01 00:15:52;;;;;;;7.30;2.90;;;;;;;;;;5066762;28;20044;-66
2022/10/01 00:18:17;;;;;;;5.22;3.20;;;;;;;;;;5067146;28;20037;-66
2022/10/01 00:20:43;;;;;;;5.50;3.15;;;;;;;;;;5057390;28;20070;-66
2022/10/01 00:23:13;;;;;;;3.08;2.38;;;;;;;;;;5043543;28;20028;-67
2022/10/01 00:25:39;;;;;;;6.72;2.90;;;;;;;;;;5046740;28;20045;-66
2022/10/01 00:28:05;;;;;;;6.22;2.63;;;;;;;;;;5046924;28;20037;-66
2022/10/01 00:30:31;;;;;;;4.38;2.67;;;;;;;;;;5047098;28;20033;-66
2022/10/01 00:32:56;;;;;;;5.75;2.42;;;;;;;;;;5028731;28;20033;-66
2022/10/01 00:35:22;;;;;;;2.15;1.52;;;;;;;;;;5030214;28;20112;-66
2022/10/01 00:37:49;;;;;;;6.15;3.03;;;;;;;;;;5027119;28;20033;-66
2022/10/01 00:40:16;;;;;;;4.28;2.67;;;;;;;;;;5040604;28;20033;-67
2022/10/01 00:42:42;;;;;;;5.75;3.15;;;;;;;;;;5046517;28;20418;-66
2022/10/01 00:45:10;;;;;;;5.50;2.33;;;;;;;;;;5046102;28;20037;-66
2022/10/01 00:47:41;;;;;;;3.60;2.63;;;;;;;;;;5046102;28;20044;-66
2022/10/01 00:50:15;;;;;;;5.35;2.83;;;;;;;;;;5042964;28;20402;-66
2022/10/01 00:52:43;;;;;;;5.50;2.80;;;;;;;;;;5024714;28;20104;-66
2022/10/01 00:55:18;;;;;;;3.78;2.78;;;;;;;;;;5026544;28;20102;-66
2022/10/01 00:57:44;;;;;;;4.72;2.63;;;;;;;;;;5043013;28;20045;-67
2022/10/01 01:00:11;;;;;;;3.53;2.50;;;;;;;;;;5046394;28;20045;-66
2022/10/01 01:02:36;;;;;;;4.50;2.55;;;;;;;;;;5044889;28;20033;-66
2022/10/01 01:05:03;;;;;;;3.28;2.40;;;;;;;;;;5044443;28;20029;-66
2022/10/01 01:07:31;;;;;;;5.82;2.75;;;;;;;;;;5041458;28;20079;-67
2022/10/01 01:09:56;;;;;;;2.63;1.90;;;;;;;;;;5045384;28;20040;-66
2022/10/01 01:13:00;;;;;;;4.45;2.45;;;;;;;;;;5042630;28;20111;-66
2022/10/01 01:15:36;;;;;;;4.30;2.03;;;;;;;;;;5005138;28;20068;-66
2022/10/01 01:18:12;;;;;;;3.47;1.70;;;;;;;;;;5037026;28;20079;-66
2022/10/01 01:20:56;;;;;;;2.55;2.08;;;;;;;;;;5048098;28;20259;-66
2022/10/01 01:23:37;;;;;;;2.92;1.90;;;;;;;;;;5046537;28;20078;-66
2022/10/01 01:26:18;;;;;;;5.68;2.22;;;;;;;;;;5046073;28;20116;-66
2022/10/01 01:28:56;;;;;;;5.20;2.20;;;;;;;;;;5027134;28;20025;-66
2022/10/01 01:31:26;;;;;;;3.35;2.00;;;;;;;;;;5037070;28;20037;-66
2022/10/01 01:33:54;;;;;;;3.72;1.95;;;;;;;;;;5026075;28;20063;-66
2022/10/01 01:36:29;;;;;;;3.55;1.60;;;;;;;;;;5026593;28;20575;-67
2022/10/01 01:39:05;;;;;;;2.95;1.73;;;;;;;;;;5025022;28;20041;-66
2022/10/01 01:41:36;;;;;;;3.17;1.67;;;;;;;;;;5024822;28;20051;-66
2022/10/01 01:44:07;;;;;;;2.58;1.95;;;;;;;;;;5026079;28;20619;-67
2022/10/01 01:46:35;;;;;;;2.85;1.85;;;;;;;;;;5044748;28;20449;-66
2022/10/01 01:49:03;;;;;;;2.38;1.67;;;;;;;;;;5045751;28;20124;-66
2022/10/01 01:51:38;;;;;;;3.15;1.98;;;;;;;;;;5027941;28;20045;-67
2022/10/01 01:54:03;;;;;;;2.20;1.67;;;;;;;;;;5045857;28;20072;-67
2022/10/01 01:56:30;;;;;;;2.25;1.60;;;;;;;;;;5037287;28;20069;-66
2022/10/01 01:58:57;;;;;;;3.38;1.80;;;;;;;;;;5039490;28;20085;-66
2022/10/01 02:01:42;;;;;;;3.00;1.60;;;;;;;;;;5025649;28;20037;-66
2022/10/01 02:04:27;;;;;;;1.58;1.35;;;;;;;;;;5025403;28;20045;-66
2022/10/01 02:07:15;;;;;;;2.22;1.75;;;;;;;;;;5045501;28;20044;-67
2022/10/01 02:10:06;;;;;;;3.70;2.33;;;;;;;;;;5035372;28;20047;-66
2022/10/01 02:12:43;;;;;;;1.98;1.70;;;;;;;;;;5038144;28;20045;-66
2022/10/01 02:15:26;;;;;;;3.15;2.25;;;;;;;;;;5049302;28;20551;-66
2022/10/01 02:18:15;;;;;;;3.70;2.20;;;;;;;;;;5049471;28;20048;-67
2022/10/01 02:21:15;;;;;;;2.97;1.58;;;;;;;;;;5047173;28;20037;-66
2022/10/01 02:23:50;;;;;;;2.30;1.90;;;;;;;;;;5016883;28;20061;-66
2022/10/01 02:26:19;;;;;;;3.10;2.03;;;;;;;;;;5049460;28;20453;-66
2022/10/01 02:28:47;;;;;;;3.55;2.03;;;;;;;;;;5050020;28;20021;-66
2022/10/01 02:31:14;;;;;;;3.88;2.10;;;;;;;;;;5048899;28;20037;-66
2022/10/01 02:33:41;;;;;;;2.80;1.90;;;;;;;;;;5048397;28;20124;-66
2022/10/01 02:36:10;;;;;;;2.33;1.60;;;;;;;;;;5044121;28;20724;-66
2022/10/01 02:38:39;;;;;;;5.10;2.22;;;;;;;;;;5030421;28;20413;-66
2022/10/01 02:41:07;;;;;;;3.80;2.08;;;;;;;;;;5047425;28;20057;-66
2022/10/01 02:43:37;;;;;;;4.10;2.63;;;;;;;;;;5049862;28;20486;-66
2022/10/01 02:46:15;;;;;;;2.78;2.15;;;;;;;;;;5048325;28;20137;-67
2022/10/01 02:48:40;;;;;;;4.70;2.78;;;;;;;;;;5041630;28;20048;-66
2022/10/01 02:51:19;;;;;;;4.93;2.17;;;;;;;;;;5069158;28;20033;-66
2022/10/01 02:53:51;;;;;;;3.97;1.92;;;;;;;;;;5053840;28;20045;-66
2022/10/01 02:57:21;;;;;;;2.50;2.10;;;;;;;;;;5048787;28;20024;-67
2022/10/01 02:59:06;;;;;;;4.82;2.17;;;;;;;;;;5047755;28;20083;-66
2022/10/01 03:01:31;;;;;;;4.43;2.25;;;;;;;;;;5049134;28;20553;-67
2022/10/01 03:03:57;;;;;;;2.63;1.77;;;;;;;;;;5048737;28;20123;-66
2022/10/01 03:06:22;;;;;;;6.30;2.10;;;;;;;;;;5059768;28;20029;-66
2022/10/01 03:08:48;;;;;;;3.13;2.05;;;;;;;;;;5046656;28;20530;-66
2022/10/01 03:11:15;;;;;;;3.20;2.33;;;;;;;;;;5031032;28;20076;-66
2022/10/01 03:13:41;;;;;;;3.75;2.22;;;;;;;;;;5047846;28;20494;-66
2022/10/01 03:16:06;;;;;;;4.18;2.20;;;;;;;;;;5048406;28;20033;-66
2022/10/01 03:18:31;;;;;;;2.50;1.70;;;;;;;;;;5056085;28;20093;-66
2022/10/01 03:20:57;;;;;;;2.05;1.75;;;;;;;;;;5064389;28;20060;-66
2022/10/01 03:23:22;;;;;;;3.58;2.08;;;;;;;;;;5063141;28;20099;-66
2022/10/01 03:25:47;;;;;;;2.80;1.67;;;;;;;;;;5047544;28;20228;-66
2022/10/01 03:28:13;;;;;;;2.33;1.65;;;;;;;;;;5047592;28;20073;-66
2022/10/01 03:30:38;;;;;;;2.33;1.83;;;;;;;;;;5029722;28;20639;-66
2022/10/01 03:33:03;;;;;;;4.63;1.85;;;;;;;;;;5048060;28;20041;-66
2022/10/01 03:35:28;;;;;;;1.83;1.52;;;;;;;;;;5048081;28;20047;-66
2022/10/01 03:37:54;;;;;;;2.28;1.45;;;;;;;;;;5048467;28;20094;-66
2022/10/01 03:40:19;;;;;;;2.67;1.67;;;;;;;;;;5045531;28;20068;-66
2022/10/01 03:42:44;;;;;;;2.22;1.60;;;;;;;;;;5055093;28;20048;-67
2022/10/01 03:45:09;;;;;;;3.28;1.50;;;;;;;;;;5047945;28;20425;-66
2022/10/01 03:47:35;;;;;;;1.88;1.40;;;;;;;;;;5030559;28;20078;-66
2022/10/01 03:50:00;;;;;;;2.10;1.50;;;;;;;;;;5047418;28;20044;-66
2022/10/01 03:52:25;;;;;;;1.70;1.50;;;;;;;;;;5048337;28;20021;-66
2022/10/01 03:54:51;;;;;;;2.28;1.63;;;;;;;;;;5046165;28;20136;-66
2022/10/01 03:57:16;;;;;;;1.88;1.40;;;;;;;;;;5046087;28;20064;-66
2022/10/01 03:59:41;;;;;;;2.63;1.90;;;;;;;;;;5027324;28;20037;-66
2022/10/01 04:02:07;;;;;;;2.72;1.65;;;;;;;;;;5027367;28;20040;-66
2022/10/01 04:04:32;;;;;;;3.13;1.35;;;;;;;;;;5026548;28;20021;-66
2022/10/01 04:06:57;;;;;;;4.45;1.83;;;;;;;;;;5027040;28;20042;-66
2022/10/01 04:09:23;;;;;;;4.55;2.22;;;;;;;;;;5027934;28;20120;-67
2022/10/01 04:11:48;;;;;;;2.83;1.75;;;;;;;;;;5050181;28;20059;-66
2022/10/01 04:14:13;;;;;;;2.70;1.85;;;;;;;;;;5045559;28;20079;-67
2022/10/01 04:16:39;;;;;;;1.83;1.50;;;;;;;;;;5029697;28;20112;-66
2022/10/01 04:19:04;;;;;;;2.53;1.25;;;;;;;;;;5046378;28;20510;-66
2022/10/01 04:21:29;;;;;;;2.78;1.65;;;;;;;;;;5047314;28;20048;-66
2022/10/01 04:23:55;;;;;;;2.50;1.70;;;;;;;;;;5046610;28;20120;-67
2022/10/01 04:26:20;;;;;;;2.30;1.50;;;;;;;;;;5028048;28;20462;-66
2022/10/01 04:28:46;;;;;;;3.35;1.42;;;;;;;;;;5045641;28;20024;-66
2022/10/01 04:31:24;;;;;;;2.17;1.30;;;;;;;;;;5046888;28;20120;-66
2022/10/01 04:33:55;;;;;;;2.20;1.52;;;;;;;;;;5036032;28;20087;-66
2022/10/01 04:36:21;;;;;;;1.83;1.30;;;;;;;;;;5046947;28;20549;-66
2022/10/01 04:38:49;;;;;;;3.00;1.58;;;;;;;;;;5046164;28;20025;-66
2022/10/01 04:41:15;;;;;;;2.75;1.63;;;;;;;;;;5041127;28;20055;-66
2022/10/01 04:43:40;;;;;;;1.92;1.50;;;;;;;;;;5046980;28;20532;-66
2022/10/01 04:46:05;;;;;;;3.88;1.70;;;;;;;;;;5045273;28;20040;-66
2022/10/01 04:48:31;;;;;;;2.45;1.55;;;;;;;;;;5046849;28;20041;-66
2022/10/01 04:50:56;;;;;;;1.75;1.40;;;;;;;;;;5046927;28;20052;-66
2022/10/01 04:53:21;;;;;;;2.28;1.40;;;;;;;;;;5045259;28;20061;-66
2022/10/01 04:55:47;;;;;;;1.38;1.20;;;;;;;;;;5066994;28;20749;-66
2022/10/01 04:58:12;;;;;;;1.45;1.35;;;;;;;;;;5066631;28;20509;-66
2022/10/01 05:00:37;;;;;;;3.33;1.40;;;;;;;;;;5066260;28;20041;-66
2022/10/01 05:03:03;;;;;;;3.60;1.30;;;;;;;;;;5063331;28;20040;-66
2022/10/01 05:05:31;;;;;;;1.70;1.50;;;;;;;;;;5046801;28;20048;-66
2022/10/01 05:07:57;;;;;;;2.50;1.35;;;;;;;;;;5034192;28;20024;-66
2022/10/01 05:10:23;;;;;;;1.83;1.33;;;;;;;;;;5046383;28;20051;-66
2022/10/01 05:12:50;;;;;;;2.17;1.40;;;;;;;;;;5045917;28;20428;-66
2022/10/01 05:15:16;;;;;;;1.90;1.40;;;;;;;;;;5052094;28;20035;-66
2022/10/01 05:17:42;;;;;;;1.65;1.35;;;;;;;;;;5065126;28;20059;-66
2022/10/01 05:20:14;;;;;;;2.80;1.55;;;;;;;;;;5056345;28;20475;-66
2022/10/01 05:22:40;;;;;;;2.63;1.17;;;;;;;;;;5045249;28;20417;-66
2022/10/01 05:25:05;;;;;;;3.55;1.33;;;;;;;;;;5045713;28;20041;-66
2022/10/01 05:27:35;;;;;;;2.42;1.50;;;;;;;;;;5045135;28;20049;-66
2022/10/01 05:30:01;;;;;;;3.15;1.40;;;;;;;;;;5044965;28;20517;-66
2022/10/01 05:32:26;;;;;;;4.13;1.40;;;;;;;;;;5046421;28;20036;-66
2022/10/01 05:34:52;;;;;;;1.90;1.42;;;;;;;;;;5045928;28;20413;-66
2022/10/01 05:37:18;;;;;;;6.72;1.95;;;;;;;;;;5044087;28;20059;-66
2022/10/01 05:39:43;;;;;;;5.60;2.50;;;;;;;;;;5045925;28;20044;-67
2022/10/01 05:42:09;;;;;;;4.60;1.98;;;;;;;;;;5045218;28;20044;-66
2022/10/01 05:44:36;;;;;;;3.03;1.70;;;;;;;;;;5046006;28;20711;-66
2022/10/01 05:47:03;;;;;;;3.65;1.80;;;;;;;;;;5045623;28;20028;-66
2022/10/01 05:49:28;;;;;;;3.03;1.52;;;;;;;;;;5050383;28;20021;-66
2022/10/01 05:51:54;;;;;;;3.60;1.70;;;;;;;;;;5046866;28;20032;-66
2022/10/01 05:54:22;;;;;;;3.63;2.00;;;;;;;;;;5043254;28;20037;-66
2022/10/01 05:56:47;;;;;;;2.90;1.90;;;;;;;;;;5053795;28;20040;-66
2022/10/01 05:59:12;;;;;;;5.10;2.95;;;;;;;;;;5048099;28;20027;-66
2022/10/01 06:01:37;;;;;;;6.53;2.40;;;;;;;;;;5030180;28;20710;-66
2022/10/01 06:04:03;;;;;;;4.90;2.40;;;;;;;;;;5028513;28;20041;-66
2022/10/01 06:06:28;;;;;;;1.95;1.75;;;;;;;;;;5044407;28;20052;-66
2022/10/01 06:08:54;;;;;;;6.22;2.20;;;;;;;;;;5053253;28;20735;-66
2022/10/01 06:11:22;;;;;;;4.20;1.77;;;;;;;;;;5050746;28;20060;-66
2022/10/01 06:13:47;;;;;;;2.42;1.65;;;;;;;;;;5049957;28;20028;-66
2022/10/01 06:16:13;;;;;;;4.80;1.70;;;;;;;;;;5041147;28;20526;-66
2022/10/01 06:18:39;;;;;;;2.78;1.77;;;;;;;;;;5029057;28;20029;-66
2022/10/01 06:21:05;;;;;;;3.28;1.55;;;;;;;;;;5053415;28;20036;-66
2022/10/01 06:23:30;;;;;;;3.17;2.03;;;;;;;;;;5069521;28;20039;-66
2022/10/01 06:25:58;;;;;;;6.50;1.85;;;;;;;;;;5059154;28;20040;-65
2022/10/01 06:28:23;;;;;;;11.90;2.53;;;;;;;;;;5048408;28;20037;-66
2022/10/01 06:30:49;;;;;;;7.72;2.40;;;;;;;;;;5049294;28;20324;-66
2022/10/01 06:33:15;;;;;;;5.53;2.70;;;;;;;;;;5051348;28;20021;-66
2022/10/01 06:35:43;;;;;;;8.85;2.63;;;;;;;;;;5041798;28;20029;-66
2022/10/01 06:38:10;;;;;;;7.72;3.13;;;;;;;;;;5065023;28;20541;-66
2022/10/01 06:40:36;;;;;;;5.70;2.50;;;;;;;;;;5046197;28;20032;-66
2022/10/01 06:43:02;;;;;;;8.38;2.85;;;;;;;;;;5039467;28;20053;-66
2022/10/01 06:45:29;;;;;;;11.30;2.70;;;;;;;;;;5031635;28;20040;-66
2022/10/01 06:48:01;;;;;;;8.50;3.17;;;;;;;;;;5041583;28;20115;-66
2022/10/01 06:50:28;;;;;;;13.75;2.45;;;;;;;;;;5023254;28;20037;-65
2022/10/01 06:52:54;;;;;;;5.00;2.33;;;;;;;;;;5027362;28;20501;-66
2022/10/01 06:55:30;;;;;;;8.10;2.55;;;;;;;;;;5026769;28;20072;-66
2022/10/01 06:58:05;;;;;;;11.30;2.70;;;;;;;;;;5028688;28;20701;-66
2022/10/01 07:00:33;;;;;;;5.03;2.33;;;;;;;;;;5025036;28;20043;-66
2022/10/01 07:02:59;;;;;;;9.23;2.17;;;;;;;;;;5042452;28;20128;-66
2022/10/01 07:05:25;;;;;;;10.27;2.00;;;;;;;;;;5028523;28;20454;-66
2022/10/01 07:07:52;;;;;;;9.30;2.40;;;;;;;;;;5046923;28;20021;-66
2022/10/01 07:10:19;;;;;;;11.25;2.22;;;;;;;;;;5028770;28;20033;-66
2022/10/01 07:12:47;;;;;;;9.27;2.30;;;;;;;;;;5043146;28;20033;-66
2022/10/01 07:15:13;;;;;;;11.00;2.13;;;;;;;;;;5045499;28;20450;-66
2022/10/01 07:17:48;;;;;;;11.27;2.42;;;;;;;;;;5045981;28;20033;-66
2022/10/01 07:20:16;;;;;;;11.95;2.40;;;;;;;;;;5021076;28;20036;-66
2022/10/01 07:22:42;;;;;;;11.77;2.55;;;;;;;;;;5042536;28;20028;-66
2022/10/01 07:25:07;;;;;;;9.77;1.90;;;;;;;;;;5053572;28;20471;-66
2022/10/01 07:27:33;;;;;;;7.25;1.92;;;;;;;;;;5067945;28;20037;-66
2022/10/01 07:29:58;;;;;;;7.13;2.20;;;;;;;;;;5050457;28;20115;-66
2022/10/01 07:32:24;;;;;;;9.55;2.13;;;;;;;;;;5028427;28;20029;-66
2022/10/01 07:34:50;;;;;;;8.98;2.30;;;;;;;;;;5031446;28;20526;-66
2022/10/01 07:37:16;;;;;;;15.60;3.08;;;;;;;;;;5032683;28;20719;-66
2022/10/01 07:39:42;;;;;;;10.27;2.03;;;;;;;;;;5034859;28;20036;-66
2022/10/01 07:42:07;;;;;;;7.53;2.22;;;;;;;;;;5034657;28;20402;-65
2022/10/01 07:44:32;;;;;;;13.38;2.55;;;;;;;;;;5042526;28;20502;-66
2022/10/01 07:46:58;;;;;;;5.90;2.10;;;;;;;;;;5043075;28;20029;-66
2022/10/01 07:49:24;;;;;;;8.85;1.63;;;;;;;;;;5021356;28;20663;-66
2022/10/01 07:51:50;;;;;;;7.20;1.83;;;;;;;;;;5034940;28;20045;-66
2022/10/01 07:54:15;;;;;;;4.85;1.60;;;;;;;;;;5041232;28;20044;-66
2022/10/01 07:56:41;;;;;;;9.80;1.83;;;;;;;;;;5045073;28;20065;-66
2022/10/01 07:59:08;;;;;;;16.13;2.60;;;;;;;;;;5020389;28;20021;-66
2022/10/01 08:01:34;;;;;;;9.63;2.30;;;;;;;;;;5035801;28;20546;-66
2022/10/01 08:04:00;;;;;;;13.77;2.22;;;;;;;;;;5038262;28;20140;-66
2022/10/01 08:06:25;;;;;;;10.55;2.13;;;;;;;;;;5035590;28;20041;-66
2022/10/01 08:08:51;;;;;;;5.20;1.67;;;;;;;;;;5041012;28;20061;-66
2022/10/01 08:11:17;;;;;;;9.88;2.47;;;;;;;;;;5046154;28;20053;-66
2022/10/01 08:13:44;;;;;;;15.82;2.35;;;;;;;;;;5047003;28;20025;-66
2022/10/01 08:16:10;;;;;;;6.40;1.70;;;;;;;;;;5058420;28;20093;-66
2022/10/01 08:18:36;;;;;;;9.15;1.92;;;;;;;;;;5042763;28;20025;-66
2022/10/01 08:21:02;;;;;;;7.95;2.00;;;;;;;;;;5023871;28;20585;-66
2022/10/01 08:23:30;;;;;;;9.77;2.00;;;;;;;;;;5030560;28;20033;-66
2022/10/01 08:26:13;;;;;;;9.30;1.80;;;;;;;;;;5035231;28;20032;-66
2022/10/01 08:28:39;;;;;;;10.07;2.28;;;;;;;;;;5022806;28;20691;-65
2022/10/01 08:31:08;;;;;;;17.38;2.50;;;;;;;;;;5040376;28;20033;-66
2022/10/01 08:33:36;;;;;;;12.50;2.40;;;;;;;;;;5040317;28;20069;-66
2022/10/01 08:36:06;;;;;;;11.60;1.70;;;;;;;;;;5040537;28;20033;-66
2022/10/01 08:38:32;;;;;;;10.48;2.42;;;;;;;;;;5048456;28;20047;-66
2022/10/01 08:41:03;;;;;;;7.13;2.03;;;;;;;;;;5043650;28;20025;-66
2022/10/01 08:43:35;;;;;;;13.80;2.25;;;;;;;;;;5039369;28;20051;-66
2022/10/01 08:46:06;;;;;;;9.95;2.30;;;;;;;;;;5041939;28;20064;-66
2022/10/01 08:49:09;;;;;;;12.50;2.13;;;;;;;;;;5037890;28;20136;-66
2022/10/01 08:51:55;;;;;;;21.90;2.78;;;;;;;;;;5038720;28;20115;-66
2022/10/01 08:54:41;;;;;;;8.45;2.20;;;;;;;;;;5044179;28;20040;-66
2022/10/01 08:57:17;;;;;;;13.23;2.10;;;;;;;;;;5022342;28;21063;-66
2022/10/01 08:59:49;;;;;;;11.73;2.35;;;;;;;;;;5027229;28;20042;-66
2022/10/01 09:02:18;;;;;;;9.40;2.00;;;;;;;;;;5031547;28;20498;-66
2022/10/01 09:04:43;;;;;;;11.73;2.08;;;;;;;;;;5039092;28;20024;-67
2022/10/01 09:08:04;;;;;;;11.40;1.80;;;;;;;;;;5042008;28;20064;-66
2022/10/01 09:10:48;;;;;;;11.77;2.20;;;;;;;;;;4924973;28;20047;-66
2022/10/01 09:13:42;;;;;;;4.95;1.50;;;;;;;;;;5031164;28;20045;-66
2022/10/01 09:16:26;;;;;;;20.20;2.45;;;;;;;;;;5024641;28;20041;-66
2022/10/01 09:19:13;;;;;;;12.65;2.20;;;;;;;;;;5031450;28;20033;-66
2022/10/01 09:22:00;;;;;;;9.77;2.35;;;;;;;;;;5042129;28;20037;-66
2022/10/01 09:24:44;;;;;;;8.30;1.80;;;;;;;;;;5043800;28;20057;-66
2022/10/01 09:27:24;;;;;;;6.15;2.13;;;;;;;;;;5044239;28;20132;-67
2022/10/01 09:29:53;;;;;;;12.15;2.35;;;;;;;;;;5041794;28;20119;-66
2022/10/01 09:32:23;;;;;;;19.98;1.90;;;;;;;;;;5036010;28;20414;-65
2022/10/01 09:34:49;;;;;;;15.15;2.80;;;;;;;;;;5037549;28;20068;-66
2022/10/01 09:37:22;;;;;;;8.55;2.30;;;;;;;;;;5024831;28;20072;-66
2022/10/01 09:40:19;;;;;;;7.43;1.75;;;;;;;;;;5026241;28;20493;-66
2022/10/01 09:42:46;;;;;;;8.82;1.80;;;;;;;;;;5025605;28;20053;-66
2022/10/01 09:45:17;;;;;;;8.18;2.10;;;;;;;;;;5025512;28;20030;-66
2022/10/01 09:47:47;;;;;;;7.18;2.00;;;;;;;;;;5027045;28;20120;-69
2022/10/01 09:50:16;;;;;;;6.45;1.50;;;;;;;;;;5038922;28;20032;-66
2022/10/01 09:52:45;;;;;;;7.40;2.17;;;;;;;;;;5038075;28;20085;-66
2022/10/01 09:55:16;;;;;;;9.32;1.75;;;;;;;;;;5041564;28;20036;-66
2022/10/01 09:57:52;;;;;;;16.20;2.20;;;;;;;;;;5065916;28;20039;-66
2022/10/01 10:00:20;;;;;;;10.55;2.33;;;;;;;;;;5065377;28;20039;-67
2022/10/01 10:02:48;;;;;;;11.27;2.15;;;;;;;;;;5044295;28;20033;-66
2022/10/01 10:05:15;;;;;;;7.60;1.60;;;;;;;;;;5053469;28;20053;-66
2022/10/01 10:07:48;;;;;;;10.18;2.45;;;;;;;;;;5022977;28;20033;-66
2022/10/01 10:10:22;;;;;;;11.77;3.58;;;;;;;;;;5042977;28;20050;-66
2022/10/01 10:12:53;;;;;;;6.10;1.20;;;;;;;;;;5045293;28;20055;-66
2022/10/01 10:15:21;;;;;;;7.25;2.50;;;;;;;;;;5045477;28;20036;-66
2022/10/01 10:17:51;;;;;;;9.57;2.00;;;;;;;;;;5049025;28;20029;-66
2022/10/01 10:20:42;;;;;;;5.95;1.85;;;;;;;;;;5043467;28;20219;-66
2022/10/01 10:23:19;;;;;;;11.13;2.22;;;;;;;;;;5043792;28;20040;-66
2022/10/01 10:25:53;;;;;;;8.93;2.10;;;;;;;;;;5045245;28;20086;-66
2022/10/01 10:28:22;;;;;;;10.05;2.25;;;;;;;;;;5041539;28;20048;-66
2022/10/01 10:30:49;;;;;;;11.07;1.83;;;;;;;;;;5043014;28;20029;-66
2022/10/01 10:33:15;;;;;;;7.60;1.77;;;;;;;;;;5040269;28;20044;-66
2022/10/01 10:35:42;;;;;;;10.38;1.90;;;;;;;;;;5041095;28;20059;-66
2022/10/01 10:38:17;;;;;;;6.57;2.15;;;;;;;;;;5047915;28;20020;-66
2022/10/01 10:40:44;;;;;;;9.63;2.10;;;;;;;;;;5046501;28;20028;-66
2022/10/01 10:43:33;;;;;;;7.18;2.15;;;;;;;;;;5027624;28;20395;-67
2022/10/01 10:45:59;;;;;;;11.02;2.10;;;;;;;;;;5041706;28;20413;-66
2022/10/01 10:48:31;;;;;;;7.68;1.73;;;;;;;;;;5046522;28;20126;-66
2022/10/01 10:51:02;;;;;;;8.07;1.70;;;;;;;;;;5038876;28;20036;-66
2022/10/01 10:53:37;;;;;;;7.30;1.25;;;;;;;;;;5038870;28;20037;-67
2022/10/01 10:56:05;;;;;;;9.90;1.75;;;;;;;;;;5063339;28;20142;-66
2022/10/01 10:58:39;;;;;;;7.47;1.50;;;;;;;;;;5042958;28;20033;-66
2022/10/01 11:01:09;;;;;;;6.80;1.70;;;;;;;;;;5033635;28;20056;-66
2022/10/01 11:03:36;;;;;;;9.98;2.15;;;;;;;;;;5029839;28;20029;-67
2022/10/01 11:06:10;;;;;;;12.60;1.70;;;;;;;;;;5041315;28;20068;-66
2022/10/01 11:08:37;;;;;;;11.15;1.80;;;;;;;;;;5022130;28;20522;-66
2022/10/01 11:11:24;;;;;;;10.02;2.20;;;;;;;;;;5062201;28;20035;-66
2022/10/01 11:14:02;;;;;;;10.93;1.52;;;;;;;;;;5067495;28;20073;-66
2022/10/01 11:16:44;;;;;;;9.85;1.52;;;;;;;;;;5026345;28;20046;-66
2022/10/01 11:19:27;;;;;;;15.20;1.77;;;;;;;;;;5045066;28;20593;-66
2022/10/01 11:22:20;;;;;;;5.35;1.65;;;;;;;;;;5046944;28;20028;-66
2022/10/01 11:24:55;;;;;;;8.23;1.95;;;;;;;;;;5066952;28;20059;-66
2022/10/01 11:27:42;;;;;;;8.80;2.05;;;;;;;;;;5066444;28;20048;-66
2022/10/01 11:30:08;;;;;;;6.50;1.38;;;;;;;;;;5048295;28;20086;-66
2022/10/01 11:32:44;;;;;;;7.20;1.60;;;;;;;;;;5043129;28;20474;-66
2022/10/01 11:35:41;;;;;;;8.52;1.48;;;;;;;;;;5020389;28;20147;-66
2022/10/01 11:38:36;;;;;;;6.28;1.40;;;;;;;;;;5038597;28;20104;-66
2022/10/01 11:41:26;;;;;;;8.60;1.30;;;;;;;;;;5028750;28;20028;-66
2022/10/01 11:43:59;;;;;;;5.53;1.48;;;;;;;;;;5046276;28;20014;-66
2022/10/01 11:46:38;;;;;;;4.40;2.00;;;;;;;;;;5045819;28;20033;-66
2022/10/01 11:49:22;;;;;;;6.88;1.27;;;;;;;;;;5046487;28;20037;-66
2022/10/01 11:51:51;;;;;;;;;;;;;;;;;;5046519;28;20421;-67
2022/10/01 11:54:23;;;;;;;7.93;1.95;;;;;;;;;;5030556;28;19912;-66
2022/10/01 11:59:42;;;;;;;6.18;1.70;;;;;;;;;;5066773;28;20531;-66
2022/10/01 12:02:17;;;;;;;5.90;1.90;;;;;;;;;;5045902;28;20033;-66
2022/10/01 12:05:18;;;;;;;9.18;1.67;;;;;;;;;;5026961;28;20025;-66
2022/10/01 12:07:49;;;;;;;9.75;1.98;;;;;;;;;;5013897;28;20052;-66
2022/10/01 12:10:33;;;;;;;6.47;1.98;;;;;;;;;;5046743;28;20129;-67
2022/10/01 12:13:11;;;;;;;8.45;1.90;;;;;;;;;;5047018;28;20045;-66
2022/10/01 12:16:10;;;;;;;9.02;2.05;;;;;;;;;;5046297;28;20052;-66
2022/10/01 12:18:47;;;;;;;8.98;1.40;;;;;;;;;;5047190;28;20062;-67
2022/10/01 12:21:19;;;;;;;7.55;1.73;;;;;;;;;;5046901;28;20033;-66
2022/10/01 12:23:55;;;;;;;10.02;2.28;;;;;;;;;;5046037;28;20087;-66
2022/10/01 12:26:52;;;;;;;9.05;1.88;;;;;;;;;;5047339;28;20052;-66
2022/10/01 12:29:35;;;;;;;6.75;1.67;;;;;;;;;;5047164;28;20710;-66
2022/10/01 12:32:19;;;;;;;4.00;1.15;;;;;;;;;;5046481;28;20025;-67
2022/10/01 12:35:05;;;;;;;8.55;1.40;;;;;;;;;;5047147;28;20024;-66
2022/10/01 12:37:49;;;;;;;7.80;1.80;;;;;;;;;;5046696;28;20140;-66
2022/10/01 12:40:39;;;;;;;2.45;1.15;;;;;;;;;;5045155;28;20580;-67
2022/10/01 12:43:37;;;;;;;6.63;1.40;;;;;;;;;;5028565;28;20044;-67
2022/10/01 12:46:20;;;;;;;4.88;1.15;;;;;;;;;;5042994;28;20037;-66
2022/10/01 12:48:53;;;;;;;4.32;1.25;;;;;;;;;;5044499;28;20043;-67
2022/10/01 12:51:32;;;;;;;3.70;1.10;;;;;;;;;;5023937;28;20090;-66
2022/10/01 12:54:12;;;;;;;5.57;1.20;;;;;;;;;;5025905;28;20626;-66
2022/10/01 12:56:47;;;;;;;9.50;1.40;;;;;;;;;;5024532;28;20107;-66
2022/10/01 12:59:27;;;;;;;15.07;1.85;;;;;;;;;;5025000;28;20025;-66
2022/10/01 13:02:02;;;;;;;11.00;1.20;;;;;;;;;;5066536;28;20032;-67
2022/10/01 13:04:49;;;;;;;4.80;1.00;;;;;;;;;;5065769;28;20044;-66
2022/10/01 13:07:36;;;;;;;7.03;1.30;;;;;;;;;;5065371;28;20041;-67
2022/10/01 13:10:16;;;;;;;3.58;0.93;;;;;;;;;;5065156;28;20044;-67
2022/10/01 13:12:57;;;;;;;7.78;1.95;;;;;;;;;;5060889;28;20047;-66
2022/10/01 13:15:30;;;;;;;5.18;1.10;;;;;;;;;;5065028;28;20568;-66
2022/10/01 13:18:05;;;;;;;6.07;1.20;;;;;;;;;;5065690;28;20028;-66
2022/10/01 13:20:51;;;;;;;4.57;1.35;;;;;;;;;;5054973;28;20128;-67
2022/10/01 13:23:32;;;;;;;7.47;1.20;;;;;;;;;;5044340;28;20063;-67
2022/10/01 13:26:05;;;;;;;3.25;1.30;;;;;;;;;;5023736;28;20484;-66
2022/10/01 13:29:06;;;;;;;5.97;1.23;;;;;;;;;;5038562;28;20041;-66
2022/10/01 13:31:38;;;;;;;4.30;1.00;;;;;;;;;;5033104;28;20131;-66
2022/10/01 13:34:38;;;;;;;4.55;1.20;;;;;;;;;;5040468;28;20105;-66
2022/10/01 13:37:18;;;;;;;4.15;1.10;;;;;;;;;;5043803;28;20064;-66
2022/10/01 13:39:44;;;;;;;2.65;0.90;;;;;;;;;;5044976;28;20029;-66
2022/10/01 13:42:26;;;;;;;4.53;1.20;;;;;;;;;;5039631;28;20037;-67
2022/10/01 13:44:57;;;;;;;4.80;1.08;;;;;;;;;;5024573;28;20713;-66
2022/10/01 13:47:23;;;;;;;3.13;1.00;;;;;;;;;;5022484;28;20030;-66
2022/10/01 13:50:02;;;;;;;9.05;1.38;;;;;;;;;;5024948;28;20048;-66
2022/10/01 13:52:30;;;;;;;4.10;1.30;;;;;;;;;;5006406;28;20407;-66
2022/10/01 13:54:58;;;;;;;5.82;1.13;;;;;;;;;;5023902;28;20034;-66
2022/10/01 13:57:33;;;;;;;8.57;2.03;;;;;;;;;;5023948;28;20037;-66
2022/10/01 14:00:21;;;;;;;4.95;0.80;;;;;;;;;;5023684;28;20034;-66
2022/10/01 14:03:05;;;;;;;4.65;1.10;;;;;;;;;;5006965;28;20037;-66
2022/10/01 14:05:37;;;;;;;7.28;1.25;;;;;;;;;;5039067;28;20051;-66
2022/10/01 14:08:20;;;;;;;7.97;1.08;;;;;;;;;;5056547;28;20135;-66
2022/10/01 14:16:40;;;;;;;8.25;1.25;;;;;;;;;;5045935;28;20093;-66
2022/10/01 14:19:08;;;;;;;7.97;1.65;;;;;;;;;;5048674;28;20059;-66
2022/10/01 14:21:55;;;;;;;6.60;1.25;;;;;;;;;;5047652;28;20049;-66
2022/10/01 14:25:03;;;;;;;5.60;1.50;;;;;;;;;;5039017;28;20072;-66
2022/10/01 14:27:45;;;;;;;7.13;1.00;;;;;;;;;;5068317;28;20044;-66
2022/10/01 14:30:19;;;;;;;7.25;1.30;;;;;;;;;;5056367;28;20599;-67
2022/10/01 14:33:15;;;;;;;7.90;1.35;;;;;;;;;;5064378;28;20041;-66
2022/10/01 14:35:46;;;;;;;5.43;1.25;;;;;;;;;;5068201;28;20098;-67
2022/10/01 14:38:19;;;;;;;6.35;1.13;;;;;;;;;;5048901;28;20032;-66
2022/10/01 14:40:46;;;;;;;7.15;1.20;;;;;;;;;;5048349;28;20025;-66
2022/10/01 14:43:21;;;;;;;5.85;1.15;;;;;;;;;;5047581;28;20040;-66
2022/10/01 14:45:57;;;;;;;2.78;0.88;;;;;;;;;;5029659;28;20076;-66
2022/10/01 14:48:25;;;;;;;5.22;1.02;;;;;;;;;;5028712;28;20620;-66
2022/10/01 14:50:53;;;;;;;6.80;1.33;;;;;;;;;;5046845;28;20041;-66
2022/10/01 14:53:22;;;;;;;5.47;2.10;;;;;;;;;;5048097;28;20025;-66
2022/10/01 14:55:51;;;;;;;5.90;1.10;;;;;;;;;;5048559;28;20021;-67
2022/10/01 14:58:28;;;;;;;9.38;1.02;;;;;;;;;;5048088;28;20555;-62
2022/10/01 15:00:55;;;;;;;9.25;2.13;;;;;;;;;;5030377;28;20048;-62
2022/10/01 15:03:20;;;;;;;4.30;0.93;;;;;;;;;;5048120;28;20041;-62
2022/10/01 15:05:48;;;;;;;4.00;1.20;;;;;;;;;;5047954;28;20037;-62
2022/10/01 15:08:14;;;;;;;5.15;1.38;;;;;;;;;;5048004;28;20017;-62
2022/10/01 15:10:45;;;;;;;7.57;1.30;;;;;;;;;;5047528;28;20582;-63
2022/10/01 15:13:18;;;;;;;6.22;1.40;;;;;;;;;;5047356;28;20061;-63
2022/10/01 15:15:44;;;;;;;4.85;1.17;;;;;;;;;;5048156;28;20044;-62
2022/10/01 15:18:15;;;;;;;4.65;1.08;;;;;;;;;;5026791;28;20036;-62